createdAt,value
2023-05-26T00:04:07.406Z,101733.39
2023-05-26T00:07:55.355Z,101733.92
2023-05-26T00:11:44.305Z,101737.38
2023-05-26T00:15:33.261Z,101736.96
2023-05-26T00:19:03.577Z,101734.94
2023-05-26T00:22:35.157Z,101736.08
2023-05-26T00:26:16.446Z,101738.04
2023-05-26T00:29:40.660Z,101740.39
2023-05-26T00:33:29.682Z,101736.42
2023-05-26T00:37:17.319Z,101736.80
2023-05-26T00:40:41.354Z,101733.27
2023-05-26T00:44:30.271Z,101731.69
2023-05-26T00:48:19.138Z,101735.86
2023-05-26T00:52:08.102Z,101737.02
2023-05-26T00:55:42.090Z,101734.22
2023-05-26T00:59:29.649Z,101733.92
2023-05-26T01:03:17.242Z,101737.33
2023-05-26T01:06:49.301Z,101736.64
2023-05-26T01:10:38.296Z,101734.72
2023-05-26T01:14:30.008Z,101738.61
2023-05-26T01:18:21.725Z,101738.87
2023-05-26T01:22:10.723Z,101736.05
2023-05-26T01:26:04.678Z,101737.36
2023-05-26T01:29:53.629Z,101731.31
2023-05-26T01:33:50.234Z,101731.62
2023-05-26T01:37:32.760Z,101729.22
2023-05-26T01:41:21.704Z,101732.89
2023-05-26T01:45:16.528Z,101731.10
2023-05-26T01:49:05.406Z,101729.30
2023-05-26T01:52:49.722Z,101728.09
2023-05-26T01:56:23.508Z,101729.52
2023-05-26T02:00:12.433Z,101731.46
2023-05-26T02:03:43.775Z,101734.77
2023-05-26T02:07:14.567Z,101731.73
2023-05-26T02:11:03.443Z,101735.59
2023-05-26T02:14:52.383Z,101737.80
2023-05-26T02:18:41.328Z,101739.58
2023-05-26T02:22:30.238Z,101739.91
2023-05-26T02:26:10.544Z,101740.36
2023-05-26T02:29:41.301Z,101741.14
2023-05-26T02:33:23.553Z,101736.46
2023-05-26T02:37:11.112Z,101730.84
2023-05-26T02:40:45.624Z,101727.53
2023-05-26T02:44:22.050Z,101730.11
2023-05-26T02:48:10.927Z,101730.27
2023-05-26T02:51:59.852Z,101736.08
2023-05-26T02:55:12.484Z,101739.30
2023-05-26T02:58:56.836Z,101735.63
2023-05-26T03:02:38.455Z,101736.16
2023-05-26T03:06:03.722Z,101740.55
2023-05-26T03:09:32.617Z,101735.06
2023-05-26T03:13:15.467Z,101732.85
2023-05-26T03:16:57.100Z,101733.48
2023-05-26T03:20:43.376Z,101729.08
2023-05-26T03:24:24.693Z,101729.52
2023-05-26T03:28:13.571Z,101728.70
2023-05-26T03:32:02.543Z,101731.42
2023-05-26T03:35:22.205Z,101731.72
2023-05-26T03:39:02.150Z,101732.77
2023-05-26T03:42:42.287Z,101730.85
2023-05-26T03:46:13.733Z,101734.53
2023-05-26T03:49:45.225Z,101736.79
2023-05-26T03:53:34.163Z,101736.81
2023-05-26T03:57:14.248Z,101733.80
2023-05-26T04:01:03.291Z,101735.52
2023-05-26T04:04:50.720Z,101737.24
2023-05-26T04:08:30.847Z,101739.94
2023-05-26T04:11:50.891Z,101739.30
2023-05-26T04:15:38.370Z,101744.66
2023-05-26T04:19:09.688Z,101743.20
2023-05-26T04:22:45.813Z,101747.81
2023-05-26T04:26:17.923Z,101752.31
2023-05-26T04:30:12.552Z,101755.13
2023-05-26T04:33:50.505Z,101762.81
2023-05-26T04:37:28.015Z,101759.64
2023-05-26T04:40:44.157Z,101763.70
2023-05-26T04:44:33.429Z,101771.11
2023-05-26T04:48:13.656Z,101768.64
2023-05-26T04:51:42.736Z,101775.84
2023-05-26T04:55:31.710Z,101778.38
2023-05-26T04:59:20.668Z,101777.77
2023-05-26T05:03:11.124Z,101774.23
2023-05-26T05:07:04.596Z,101777.67
2023-05-26T05:10:42.149Z,101778.36
2023-05-26T05:14:07.138Z,101775.38
2023-05-26T05:17:56.157Z,101771.08
2023-05-26T05:21:27.695Z,101767.77
2023-05-26T05:25:15.457Z,101764.82
2023-05-26T05:28:33.981Z,101765.52
2023-05-26T05:32:03.560Z,101771.82
2023-05-26T05:35:34.851Z,101774.52
2023-05-26T05:39:06.952Z,101776.27
2023-05-26T05:42:41.646Z,101778.06
2023-05-26T05:46:05.593Z,101786.70
2023-05-26T05:49:35.234Z,101791.89
2023-05-26T05:53:24.284Z,101797.77
2023-05-26T05:57:13.252Z,101797.54
2023-05-26T06:00:36.567Z,101803.15
2023-05-26T06:04:07.888Z,101801.98
2023-05-26T06:07:44.781Z,101797.48
2023-05-26T06:11:33.756Z,101800.05
2023-05-26T06:15:15.760Z,101800.33
2023-05-26T06:18:42.847Z,101799.63
2023-05-26T06:22:14.206Z,101796.84
2023-05-26T06:26:03.181Z,101795.91
2023-05-26T06:29:23.481Z,101800.41
2023-05-26T06:33:12.926Z,101798.39
2023-05-26T06:37:01.508Z,101799.55
2023-05-26T06:40:50.537Z,101800.94
2023-05-26T06:44:32.234Z,101803.35
2023-05-26T06:48:15.249Z,101805.38
2023-05-26T06:52:04.211Z,101807.27
2023-05-26T06:55:45.978Z,101807.63
2023-05-26T06:59:25.055Z,101805.66
2023-05-26T07:03:13.952Z,101804.56
2023-05-26T07:07:03.011Z,101815.44
2023-05-26T07:10:37.150Z,101806.38
2023-05-26T07:14:16.047Z,101805.39
2023-05-26T07:18:03.943Z,101800.09
2023-05-26T07:21:45.578Z,101794.21
2023-05-26T07:25:34.502Z,101792.35
2023-05-26T07:28:58.937Z,101802.46
2023-05-26T07:32:48.057Z,101798.33
2023-05-26T07:36:37.095Z,101800.98
2023-05-26T07:40:08.496Z,101805.70
2023-05-26T07:43:57.242Z,101809.69
2023-05-26T07:47:31.629Z,101806.05
2023-05-26T07:51:10.651Z,101811.23
2023-05-26T07:54:39.036Z,101816.96
2023-05-26T07:58:11.119Z,101823.37
2023-05-26T08:01:52.591Z,101826.56
2023-05-26T08:05:41.629Z,101830.30
2023-05-26T08:09:29.629Z,101835.42
2023-05-26T08:13:05.707Z,101831.45
2023-05-26T08:16:17.274Z,101832.58
2023-05-26T08:20:09.088Z,101824.89
2023-05-26T08:23:43.690Z,101819.85
2023-05-26T08:27:20.333Z,101824.91
2023-05-26T08:31:09.430Z,101819.02
2023-05-26T08:34:27.029Z,101813.83
2023-05-26T08:38:01.182Z,101808.95
2023-05-26T08:41:25.498Z,101812.43
2023-05-26T08:45:14.818Z,101810.65
2023-05-26T08:48:34.514Z,101814.39
2023-05-26T08:51:53.349Z,101815.83
2023-05-26T08:55:03.026Z,101813.31
2023-05-26T08:58:13.864Z,101809.15
2023-05-26T09:01:51.916Z,101809.34
2023-05-26T09:05:16.406Z,101805.84
2023-05-26T09:08:34.996Z,101813.18
2023-05-26T09:12:25.466Z,101813.73
2023-05-26T09:19:49.935Z,101807.51
2023-05-26T09:23:33.492Z,101812.63
2023-05-26T09:27:22.501Z,101813.14
2023-05-26T09:31:17.026Z,101810.38
2023-05-26T09:34:52.094Z,101811.56
2023-05-26T09:38:34.456Z,101821.48
2023-05-26T09:42:23.535Z,101812.31
2023-05-26T09:45:54.516Z,101806.23
2023-05-26T09:49:15.481Z,101806.80
2023-05-26T09:53:04.509Z,101810.19
2023-05-26T09:56:53.848Z,101806.31
2023-05-26T10:00:29.764Z,101815.09
2023-05-26T10:04:09.519Z,101804.83
2023-05-26T10:07:58.658Z,101806.65
2023-05-26T10:11:38.995Z,101813.66
2023-05-26T10:15:03.998Z,101812.96
2023-05-26T10:18:52.476Z,101808.23
2023-05-26T10:22:41.618Z,101798.58
2023-05-26T10:26:23.933Z,101799.95
2023-05-26T10:30:11.654Z,101802.90
2023-05-26T10:34:18.517Z,101798.73
2023-05-26T10:37:17.863Z,101805.30
2023-05-26T10:40:05.757Z,101800.13
2023-05-26T10:43:47.611Z,101799.11
2023-05-26T10:47:46.596Z,101801.02
2023-05-26T10:50:37.321Z,101793.59
2023-05-26T10:54:27.014Z,101794.15
2023-05-26T10:57:47.550Z,101800.25
2023-05-26T11:01:28.135Z,101798.70
2023-05-26T11:05:23.805Z,101805.94
2023-05-26T11:09:15.572Z,101798.73
2023-05-26T11:12:49.156Z,101795.43
2023-05-26T11:16:38.573Z,101794.69
2023-05-26T11:19:34.986Z,101785.23
2023-05-26T11:22:51.925Z,101788.06
2023-05-26T11:26:25.698Z,101795.06
2023-05-26T11:29:15.379Z,101786.89
2023-05-26T11:32:14.328Z,101788.34
2023-05-26T11:35:02.888Z,101778.98
2023-05-26T11:37:54.158Z,101777.73
2023-05-26T11:41:15.613Z,101772.84
2023-05-26T11:44:47.622Z,101767.18
2023-05-26T11:47:45.085Z,101774.39
2023-05-26T11:50:51.446Z,101764.45
2023-05-26T11:53:42.857Z,101759.83
2023-05-26T11:56:31.673Z,101761.98
2023-05-26T11:59:41.707Z,101773.03
2023-05-26T12:02:18.201Z,101769.98
2023-05-26T12:05:47.641Z,101766.33
2023-05-26T12:09:10.991Z,101764.92
2023-05-26T12:12:30.054Z,101767.19
2023-05-26T12:15:07.363Z,101770.36
2023-05-26T12:18:14.859Z,101758.16
2023-05-26T12:21:22.057Z,101762.33
2023-05-26T12:24:57.187Z,101770.14
2023-05-26T12:28:22.575Z,101766.86
2023-05-26T12:31:28.700Z,101765.48
2023-05-26T12:34:32.917Z,101765.73
2023-05-26T12:37:26.608Z,101758.74
2023-05-26T12:40:16.931Z,101758.76
2023-05-26T12:43:19.370Z,101758.69
2023-05-26T12:46:41.390Z,101757.86
2023-05-26T12:49:54.061Z,101752.73
2023-05-26T12:52:50.738Z,101754.74
2023-05-26T12:56:01.484Z,101745.99
2023-05-26T12:59:21.378Z,101746.52
2023-05-26T13:02:43.117Z,101739.58
2023-05-26T13:05:52.070Z,101739.46
2023-05-26T13:09:26.502Z,101736.66
2023-05-26T13:12:56.153Z,101735.09
2023-05-26T13:16:25.869Z,101743.60
2023-05-26T13:20:10.375Z,101741.35
2023-05-26T13:23:19.111Z,101729.66
2023-05-26T13:26:50.603Z,101731.77
2023-05-26T13:30:28.056Z,101735.63
2023-05-26T13:34:18.387Z,101728.63
2023-05-26T13:37:59.223Z,101727.75
2023-05-26T13:41:21.853Z,101719.60
2023-05-26T13:44:49.969Z,101722.17
2023-05-26T13:48:14.607Z,101726.36
2023-05-26T13:52:03.236Z,101724.85
2023-05-26T13:55:38.680Z,101724.91
2023-05-26T13:59:04.796Z,101727.13
2023-05-26T14:01:55.808Z,101731.70
2023-05-26T14:05:35.974Z,101738.65
2023-05-26T14:09:11.744Z,101729.91
2023-05-26T14:12:28.074Z,101727.65
2023-05-26T14:15:37.021Z,101734.06
2023-05-26T14:19:05.370Z,101728.90
2023-05-26T14:22:35.363Z,101727.42
2023-05-26T14:25:59.581Z,101732.05
2023-05-26T14:29:03.531Z,101733.88
2023-05-26T14:32:23.921Z,101732.63
2023-05-26T14:35:25.439Z,101727.91
2023-05-26T14:38:16.938Z,101732.64
2023-05-26T14:40:48.086Z,101728.54
2023-05-26T14:43:47.186Z,101723.65
2023-05-26T14:47:23.720Z,101729.07
2023-05-26T14:50:49.138Z,101727.52
2023-05-26T14:54:21.309Z,101727.79
2023-05-26T14:57:46.159Z,101720.81
2023-05-26T15:01:11.031Z,101721.60
2023-05-26T15:04:22.134Z,101714.83
2023-05-26T15:08:03.053Z,101716.64
2023-05-26T15:11:17.947Z,101716.61
2023-05-26T15:14:28.273Z,101717.20
2023-05-26T15:18:11.762Z,101715.20
2023-05-26T15:21:52.794Z,101719.70
2023-05-26T15:25:41.796Z,101714.11
2023-05-26T15:29:16.121Z,101721.88
2023-05-26T15:32:56.187Z,101717.41
2023-05-26T15:35:58.606Z,101719.48
2023-05-26T15:39:26.274Z,101724.59
2023-05-26T15:42:37.925Z,101723.55
2023-05-26T15:46:05.165Z,101728.78
2023-05-26T15:49:39.524Z,101723.79
2023-05-26T15:53:14.997Z,101722.66
2023-05-26T15:57:10.954Z,101724.29
2023-05-26T16:00:52.840Z,101727.08
2023-05-26T16:08:42.592Z,101730.28
2023-05-26T16:12:17.508Z,101727.89
2023-05-26T16:15:59.209Z,101728.88
2023-05-26T16:19:49.275Z,101724.38
2023-05-26T16:22:20.415Z,101721.65
2023-05-26T16:25:34.727Z,101721.92
2023-05-26T16:29:09.516Z,101725.20
2023-05-26T16:32:51.569Z,101721.51
2023-05-26T16:36:31.256Z,101717.91
2023-05-26T16:40:20.219Z,101713.44
2023-05-26T16:43:17.113Z,101714.25
2023-05-26T16:47:09.112Z,101712.73
2023-05-26T16:50:57.289Z,101714.25
2023-05-26T16:53:56.316Z,101714.61
2023-05-26T16:57:02.884Z,101713.70
2023-05-26T17:00:52.436Z,101717.32
2023-05-26T17:04:41.605Z,101718.14
2023-05-26T17:08:14.761Z,101721.67
2023-05-26T17:11:36.894Z,101721.45
2023-05-26T17:15:18.942Z,101726.55
2023-05-26T17:19:02.289Z,101726.78
2023-05-26T17:22:00.195Z,101728.91
2023-05-26T17:25:14.917Z,101731.25
2023-05-26T17:28:46.725Z,101732.23
2023-05-26T17:31:58.086Z,101733.39
2023-05-26T17:35:33.731Z,101736.88
2023-05-26T17:39:22.892Z,101738.09
2023-05-26T17:43:12.224Z,101739.55
2023-05-26T17:46:43.422Z,101742.36
2023-05-26T17:50:30.584Z,101746.80
2023-05-26T17:53:48.059Z,101749.67
2023-05-26T17:57:02.716Z,101753.83
2023-05-26T17:59:52.275Z,101752.19
2023-05-26T18:03:01.967Z,101754.01
2023-05-26T18:05:59.725Z,101755.58
2023-05-26T18:09:15.276Z,101755.70
2023-05-26T18:12:23.304Z,101759.99
2023-05-26T18:15:39.478Z,101764.52
2023-05-26T18:19:29.547Z,101769.70
2023-05-26T18:23:02.082Z,101771.21
2023-05-26T18:26:51.368Z,101775.06
2023-05-26T18:30:22.746Z,101778.09
2023-05-26T18:33:31.316Z,101779.30
2023-05-26T18:36:18.812Z,101780.61
2023-05-26T18:39:40.764Z,101783.62
2023-05-26T18:43:15.225Z,101790.70
2023-05-26T18:46:08.493Z,101796.58
2023-05-26T18:48:50.701Z,101796.11
2023-05-26T18:51:45.734Z,101800.84
2023-05-26T18:55:15.928Z,101806.65
2023-05-26T18:58:58.823Z,101815.22
2023-05-26T19:01:57.607Z,101825.29
2023-05-26T19:05:20.138Z,101831.67
2023-05-26T19:08:25.614Z,101838.19
2023-05-26T19:11:19.184Z,101841.70
2023-05-26T19:14:48.599Z,101848.23
2023-05-26T19:18:38.699Z,101857.03
2023-05-26T19:22:22.442Z,101865.00
2023-05-26T19:25:34.221Z,101872.50
2023-05-26T19:28:26.289Z,101876.94
2023-05-26T19:30:59.843Z,101881.55
2023-05-26T19:34:28.687Z,101887.15
2023-05-26T19:38:16.979Z,101888.64
2023-05-26T19:41:04.556Z,101889.05
2023-05-26T19:43:59.317Z,101887.48
2023-05-26T19:47:16.321Z,101886.75
2023-05-26T19:50:08.611Z,101891.20
2023-05-26T19:53:24.043Z,101892.33
2023-05-26T19:56:46.606Z,101900.19
2023-05-26T20:00:11.654Z,101902.64
2023-05-26T20:03:22.550Z,101909.63
2023-05-26T20:06:58.355Z,101913.40
2023-05-26T20:09:54.636Z,101917.38
2023-05-26T20:13:26.673Z,101924.89
2023-05-26T20:16:50.471Z,101930.19
2023-05-26T20:20:35.519Z,101933.87
2023-05-26T20:24:21.888Z,101932.10
2023-05-26T20:27:51.006Z,101933.15
2023-05-26T20:31:01.521Z,101935.38
2023-05-26T20:33:39.912Z,101940.31
2023-05-26T20:37:29.480Z,101944.17
2023-05-26T20:40:34.449Z,101948.73
2023-05-26T20:43:56.689Z,101951.95
2023-05-26T20:47:18.164Z,101953.63
2023-05-26T20:50:50.595Z,101957.86
2023-05-26T20:54:13.941Z,101957.13
2023-05-26T20:57:43.772Z,101965.91
2023-05-26T21:01:13.221Z,101969.14
2023-05-26T21:04:20.995Z,101967.61
2023-05-26T21:07:43.245Z,101973.60
2023-05-26T21:11:14.462Z,101976.58
2023-05-26T21:14:18.587Z,101981.77
2023-05-26T21:17:37.416Z,101983.80
2023-05-26T21:21:06.477Z,101987.40
2023-05-26T21:24:37.474Z,101985.09
2023-05-26T21:28:26.578Z,101990.33
2023-05-26T21:31:33.638Z,101987.23
2023-05-26T21:34:57.950Z,101986.38
2023-05-26T21:37:54.009Z,101986.96
2023-05-26T21:41:22.727Z,101986.60
2023-05-26T21:45:10.396Z,101990.60
2023-05-26T21:48:48.365Z,101986.24
2023-05-26T21:52:29.502Z,101992.27
2023-05-26T21:55:51.051Z,101996.91
2023-05-26T21:59:20.757Z,101996.38
2023-05-26T22:02:45.564Z,102003.63
2023-05-26T22:06:24.493Z,102009.30
2023-05-26T22:10:13.433Z,102011.47
2023-05-26T22:13:44.162Z,102016.13
2023-05-26T22:17:15.636Z,102017.49
2023-05-26T22:20:53.948Z,102021.08
2023-05-26T22:24:14.115Z,102021.77
2023-05-26T22:27:36.280Z,102023.84
2023-05-26T22:30:48.504Z,102022.11
2023-05-26T22:34:00.827Z,102026.41
2023-05-26T22:37:45.891Z,102035.70
2023-05-26T22:41:16.446Z,102033.23
2023-05-26T22:43:54.190Z,102034.05
2023-05-26T22:46:56.689Z,102035.66
2023-05-26T22:49:48.326Z,102030.83
2023-05-26T22:52:40.206Z,102033.30
2023-05-26T22:56:14.083Z,102036.52
2023-05-26T22:59:46.466Z,102041.27
2023-05-26T23:03:27.173Z,102038.36
2023-05-26T23:06:12.295Z,102045.45
2023-05-26T23:09:18.553Z,102045.24
2023-05-26T23:12:10.909Z,102044.81
2023-05-26T23:15:14.092Z,102040.59
2023-05-26T23:18:46.979Z,102042.84
2023-05-26T23:22:35.870Z,102046.16
2023-05-26T23:26:04.922Z,102046.52
2023-05-26T23:29:29.518Z,102047.96
2023-05-26T23:33:08.238Z,102047.58
2023-05-26T23:35:43.021Z,102047.44
2023-05-26T23:39:09.291Z,102047.09
2023-05-26T23:42:51.880Z,102051.40
2023-05-26T23:46:33.485Z,102049.40
2023-05-26T23:50:22.581Z,102057.43
2023-05-26T23:53:17.892Z,102057.32
2023-05-26T23:56:42.275Z,102056.39
